createdAt,value
2018-05-15T00:01:13.613Z,84.30
2018-05-15T00:03:41.250Z,84.30
2018-05-15T00:06:08.894Z,84.10
2018-05-15T00:08:37.277Z,84.00
2018-05-15T00:11:04.913Z,84.00
2018-05-15T00:13:33.317Z,84.00
2018-05-15T00:16:00.970Z,84.00
2018-05-15T00:18:29.370Z,84.40
2018-05-15T00:20:57.022Z,84.30
2018-05-15T00:23:24.660Z,84.60
2018-05-15T00:25:53.069Z,85.30
2018-05-15T00:28:20.702Z,84.50
2018-05-15T00:30:48.339Z,84.90
2018-05-15T00:33:15.973Z,84.80
2018-05-15T00:35:43.608Z,84.50
2018-05-15T00:38:11.234Z,84.60
2018-05-15T00:40:39.633Z,84.80
2018-05-15T00:43:07.266Z,84.70
2018-05-15T00:45:34.906Z,84.90
2018-05-15T00:48:02.565Z,85.10
2018-05-15T00:50:30.201Z,84.90
2018-05-15T00:52:57.822Z,84.80
2018-05-15T00:55:45.265Z,85.00
2018-05-15T00:58:12.904Z,84.90
2018-05-15T01:00:41.682Z,82.90
2018-05-15T01:03:10.119Z,83.20
2018-05-15T01:05:37.746Z,83.20
2018-05-15T01:08:05.378Z,83.20
2018-05-15T01:10:33.786Z,82.40
2018-05-15T01:13:01.400Z,82.40
2018-05-15T01:15:29.020Z,82.80
2018-05-15T01:17:56.636Z,82.60
2018-05-15T01:20:24.288Z,85.20
2018-05-15T01:22:51.910Z,85.00
2018-05-15T01:25:19.528Z,84.30
2018-05-15T01:27:47.955Z,84.20
2018-05-15T01:30:15.560Z,84.00
2018-05-15T01:32:43.957Z,83.80
2018-05-15T01:35:11.580Z,83.80
2018-05-15T01:37:39.195Z,84.00
2018-05-15T01:40:06.820Z,84.10
2018-05-15T01:42:35.266Z,84.20
2018-05-15T01:45:02.856Z,84.10
2018-05-15T01:47:31.243Z,84.00
2018-05-15T01:49:59.641Z,84.40
2018-05-15T01:52:27.268Z,84.40
2018-05-15T01:54:54.884Z,84.50
2018-05-15T01:57:22.500Z,84.50
2018-05-15T01:59:50.891Z,85.00
2018-05-15T02:02:18.584Z,84.90
2018-05-15T02:04:46.205Z,85.30
2018-05-15T02:07:14.600Z,85.90
2018-05-15T02:09:42.219Z,85.90
2018-05-15T02:12:09.837Z,86.50
2018-05-15T02:14:37.456Z,87.50
2018-05-15T02:17:05.851Z,87.40
2018-05-15T02:19:33.480Z,87.30
2018-05-15T02:22:01.876Z,89.20
2018-05-15T02:24:30.264Z,88.70
2018-05-15T02:26:57.905Z,88.70
2018-05-15T02:29:26.302Z,88.90
2018-05-15T02:31:53.924Z,88.70
2018-05-15T02:34:21.557Z,88.60
2018-05-15T02:36:49.949Z,88.80
2018-05-15T02:39:17.576Z,88.00
2018-05-15T02:41:45.208Z,87.90
2018-05-15T02:44:12.833Z,88.00
2018-05-15T02:46:40.468Z,87.70
2018-05-15T02:49:08.089Z,87.70
2018-05-15T02:51:36.487Z,88.30
2018-05-15T02:54:04.103Z,88.30
2018-05-15T02:56:31.756Z,88.40
2018-05-15T02:58:59.381Z,88.30
2018-05-15T03:01:27.007Z,88.70
2018-05-15T03:03:55.403Z,90.00
2018-05-15T03:06:23.020Z,89.90
2018-05-15T03:08:50.648Z,90.30
2018-05-15T03:11:18.274Z,90.50
2018-05-15T03:13:45.900Z,90.50
2018-05-15T03:16:13.516Z,90.40
2018-05-15T03:18:41.144Z,90.00
2018-05-15T03:21:09.535Z,89.00
2018-05-15T03:23:37.164Z,89.00
2018-05-15T03:26:04.796Z,89.10
2018-05-15T03:28:32.412Z,88.60
2018-05-15T03:31:00.037Z,88.30
2018-05-15T03:33:27.672Z,88.20
2018-05-15T03:35:55.293Z,88.00
2018-05-15T03:38:22.924Z,87.90
2018-05-15T03:40:50.552Z,88.00
2018-05-15T03:43:18.163Z,88.40
2018-05-15T03:45:46.567Z,88.40
2018-05-15T03:48:14.187Z,88.30
2018-05-15T03:50:42.583Z,88.20
2018-05-15T03:53:10.967Z,88.00
2018-05-15T03:55:38.584Z,88.00
2018-05-15T03:58:06.207Z,87.80
2018-05-15T04:00:45.684Z,87.40
2018-05-15T04:03:25.223Z,87.10
2018-05-15T04:06:04.631Z,87.10
2018-05-15T04:08:32.258Z,86.80
2018-05-15T04:10:59.975Z,86.30
2018-05-15T04:13:27.614Z,86.10
2018-05-15T04:15:55.254Z,85.90
2018-05-15T04:18:23.762Z,85.60
2018-05-15T04:20:51.388Z,85.50
2018-05-15T04:23:19.016Z,85.10
2018-05-15T04:25:46.679Z,85.00
2018-05-15T04:28:15.130Z,85.30
2018-05-15T04:30:43.511Z,84.70
2018-05-15T04:33:11.141Z,84.70
2018-05-15T04:35:38.756Z,84.60
2018-05-15T04:38:07.156Z,85.30
2018-05-15T04:40:34.779Z,85.10
2018-05-15T04:43:02.392Z,84.60
2018-05-15T04:45:30.020Z,84.50
2018-05-15T04:47:58.404Z,84.80
2018-05-15T04:50:26.784Z,85.20
2018-05-15T04:52:54.423Z,85.10
2018-05-15T04:55:22.094Z,84.40
2018-05-15T04:57:50.474Z,83.10
2018-05-15T05:00:18.867Z,82.60
2018-05-15T05:02:47.248Z,81.80
2018-05-15T05:05:14.900Z,81.90
2018-05-15T05:07:43.319Z,81.80
2018-05-15T05:10:10.930Z,81.70
2018-05-15T05:12:39.332Z,81.20
2018-05-15T05:15:06.963Z,81.20
2018-05-15T05:17:35.352Z,80.50
2018-05-15T05:20:03.789Z,79.80
2018-05-15T05:22:31.922Z,79.80
2018-05-15T05:24:59.556Z,78.90
2018-05-15T05:27:27.939Z,78.00
2018-05-15T05:29:56.352Z,77.40
2018-05-15T05:32:23.977Z,77.40
2018-05-15T05:34:52.360Z,76.50
2018-05-15T05:37:20.762Z,75.70
2018-05-15T05:39:48.393Z,75.60
2018-05-15T05:42:16.799Z,73.70
2018-05-15T05:44:44.439Z,73.70
2018-05-15T05:47:12.842Z,71.20
2018-05-15T05:49:40.468Z,71.20
2018-05-15T05:52:08.931Z,69.10
2018-05-15T05:54:36.537Z,69.10
2018-05-15T05:57:04.168Z,68.40
2018-05-15T05:59:32.560Z,66.90
2018-05-15T06:02:00.190Z,66.80
2018-05-15T06:04:27.812Z,65.90
2018-05-15T06:06:55.473Z,65.60
2018-05-15T06:09:23.082Z,65.70
2018-05-15T06:11:51.476Z,67.40
2018-05-15T06:14:19.126Z,67.30
2018-05-15T06:16:46.755Z,67.70
2018-05-15T06:19:14.380Z,66.80
2018-05-15T06:21:42.004Z,66.20
2018-05-15T06:24:10.379Z,63.50
2018-05-15T06:26:38.784Z,62.40
2018-05-15T06:29:06.392Z,62.20
2018-05-15T06:31:34.022Z,61.30
2018-05-15T06:34:01.647Z,61.50
2018-05-15T06:36:29.286Z,60.50
2018-05-15T06:38:56.925Z,59.60
2018-05-15T06:41:24.532Z,59.20
2018-05-15T06:43:52.155Z,59.10
2018-05-15T06:46:19.788Z,58.90
2018-05-15T06:48:47.414Z,58.50
2018-05-15T06:51:15.057Z,57.40
2018-05-15T06:53:43.433Z,53.80
2018-05-15T06:56:11.821Z,52.80
2018-05-15T06:58:40.202Z,53.80
2018-05-15T07:01:08.621Z,54.10
2018-05-15T07:03:36.231Z,54.10
2018-05-15T07:06:04.641Z,52.80
2018-05-15T07:08:32.260Z,52.70
2018-05-15T07:10:59.904Z,51.80
2018-05-15T07:13:27.578Z,51.20
2018-05-15T07:15:55.203Z,52.50
2018-05-15T07:18:22.835Z,52.20
2018-05-15T07:20:50.461Z,51.50
2018-05-15T07:23:18.088Z,51.90
2018-05-15T07:25:45.716Z,51.60
2018-05-15T07:28:13.332Z,51.60
2018-05-15T07:30:40.971Z,51.30
2018-05-15T07:33:08.671Z,50.40
2018-05-15T07:35:36.289Z,50.60
2018-05-15T07:38:03.916Z,50.00
2018-05-15T07:40:31.548Z,50.10
2018-05-15T07:42:59.936Z,49.90
2018-05-15T07:45:29.378Z,49.00
2018-05-15T07:47:57.032Z,48.90
2018-05-15T07:50:24.661Z,49.40
2018-05-15T07:52:53.056Z,49.50
2018-05-15T07:55:20.676Z,49.50
2018-05-15T07:57:48.317Z,49.00
2018-05-15T08:00:15.948Z,48.20
2018-05-15T08:02:43.575Z,46.60
2018-05-15T08:05:11.998Z,45.90
2018-05-15T08:07:39.631Z,45.80
2018-05-15T08:10:07.256Z,45.70
2018-05-15T08:12:34.883Z,45.20
2018-05-15T08:15:02.504Z,44.20
2018-05-15T08:17:30.124Z,43.30
2018-05-15T08:19:57.784Z,42.70
2018-05-15T08:22:25.403Z,41.40
2018-05-15T08:24:53.073Z,41.00
2018-05-15T08:27:20.688Z,39.30
2018-05-15T08:29:49.086Z,38.60
2018-05-15T08:32:16.704Z,38.40
2018-05-15T08:34:44.333Z,37.00
2018-05-15T08:37:11.987Z,37.30
2018-05-15T08:39:39.604Z,34.80
2018-05-15T08:42:08.012Z,33.80
2018-05-15T08:44:35.633Z,33.80
2018-05-15T08:47:03.296Z,33.20
2018-05-15T08:49:31.688Z,32.60
2018-05-15T08:52:00.131Z,33.80
2018-05-15T08:54:27.767Z,33.80
2018-05-15T08:56:55.386Z,35.60
2018-05-15T08:59:23.776Z,36.30
2018-05-15T09:01:51.392Z,36.30
2018-05-15T09:04:19.020Z,36.50
2018-05-15T09:06:46.673Z,36.90
2018-05-15T09:09:14.299Z,38.00
2018-05-15T09:11:42.697Z,37.50
2018-05-15T09:14:10.316Z,37.50
2018-05-15T09:16:37.945Z,37.70
2018-05-15T09:19:05.572Z,36.80
2018-05-15T09:21:33.964Z,35.50
2018-05-15T09:24:01.600Z,35.40
2018-05-15T09:26:29.993Z,33.70
2018-05-15T09:28:57.626Z,33.50
2018-05-15T09:31:25.276Z,33.60
2018-05-15T09:33:53.024Z,33.70
2018-05-15T09:36:20.727Z,33.00
2018-05-15T09:38:48.311Z,32.60
2018-05-15T09:41:15.927Z,31.70
2018-05-15T09:43:58.451Z,31.40
2018-05-15T09:46:26.856Z,32.40
2018-05-15T09:48:54.535Z,32.40
2018-05-15T09:51:22.167Z,32.90
2018-05-15T09:53:49.803Z,33.40
2018-05-15T09:56:18.242Z,34.90
2018-05-15T09:58:45.852Z,34.90
2018-05-15T10:01:14.244Z,35.60
2018-05-15T10:03:41.883Z,35.50
2018-05-15T10:06:10.273Z,33.40
2018-05-15T10:08:38.676Z,32.70
2018-05-15T10:11:06.328Z,32.70
2018-05-15T10:13:33.984Z,34.00
2018-05-15T10:16:01.620Z,33.60
2018-05-15T10:18:30.961Z,32.90
2018-05-15T10:20:58.589Z,32.80
2018-05-15T10:23:26.251Z,33.20
2018-05-15T10:25:54.664Z,32.90
2018-05-15T10:28:22.308Z,32.80
2018-05-15T10:30:49.942Z,32.80
2018-05-15T10:33:18.365Z,32.90
2018-05-15T10:35:45.995Z,32.80
2018-05-15T10:38:14.384Z,32.50
2018-05-15T10:40:42.012Z,32.50
2018-05-15T10:43:10.411Z,32.00
2018-05-15T10:45:38.036Z,31.90
2018-05-15T10:48:05.676Z,32.00
2018-05-15T10:50:33.308Z,32.10
2018-05-15T10:53:00.932Z,32.50
2018-05-15T10:55:29.324Z,32.00
2018-05-15T10:57:56.985Z,32.00
2018-05-15T11:00:24.604Z,32.80
2018-05-15T11:02:52.262Z,32.60
2018-05-15T11:05:20.704Z,33.50
2018-05-15T11:07:48.328Z,33.40
2018-05-15T11:10:15.956Z,33.70
2018-05-15T11:12:43.589Z,32.90
2018-05-15T11:15:11.260Z,32.90
2018-05-15T11:17:38.937Z,31.80
2018-05-15T11:20:18.408Z,32.20
2018-05-15T11:22:57.768Z,32.00
2018-05-15T11:25:25.398Z,32.20
2018-05-15T11:27:53.052Z,32.10
2018-05-15T11:30:20.705Z,31.30
2018-05-15T11:32:48.331Z,31.50
2018-05-15T11:35:15.955Z,32.10
2018-05-15T11:37:44.353Z,32.50
2018-05-15T11:40:11.967Z,32.40
2018-05-15T11:42:39.640Z,31.80
2018-05-15T11:45:07.266Z,31.30
2018-05-15T11:47:35.108Z,31.20
2018-05-15T11:50:03.508Z,30.50
2018-05-15T11:52:31.033Z,30.60
2018-05-15T11:54:57.892Z,31.00
2018-05-15T11:57:25.511Z,31.20
2018-05-15T11:59:53.912Z,31.10
2018-05-15T12:02:21.563Z,31.10
2018-05-15T12:04:49.231Z,31.30
2018-05-15T12:07:16.868Z,31.20
2018-05-15T12:09:44.485Z,31.50
2018-05-15T12:12:12.124Z,32.00
2018-05-15T12:14:39.754Z,32.00
2018-05-15T12:17:08.156Z,33.40
2018-05-15T12:19:35.813Z,33.40
2018-05-15T12:22:03.438Z,34.10
2018-05-15T12:24:31.113Z,33.60
2018-05-15T12:26:58.828Z,33.10
2018-05-15T12:29:26.483Z,34.10
2018-05-15T12:31:54.101Z,32.70
2018-05-15T12:34:22.488Z,32.10
2018-05-15T12:36:50.872Z,31.20
2018-05-15T12:39:18.567Z,31.10
2018-05-15T12:41:46.321Z,30.60
2018-05-15T12:44:13.849Z,29.50
2018-05-15T12:46:41.837Z,28.80
2018-05-15T12:49:09.396Z,28.10
2018-05-15T12:51:37.021Z,27.20
2018-05-15T12:54:05.446Z,26.30
2018-05-15T12:56:33.052Z,26.20
2018-05-15T12:59:00.670Z,26.10
2018-05-15T13:01:28.295Z,25.60
2018-05-15T13:03:55.921Z,24.60
2018-05-15T13:06:23.540Z,23.70
2018-05-15T13:08:51.186Z,23.10
2018-05-15T13:11:18.808Z,23.20
2018-05-15T13:13:46.435Z,22.00
2018-05-15T13:16:14.061Z,22.10
2018-05-15T13:18:41.719Z,21.40
2018-05-15T13:21:09.369Z,21.10
2018-05-15T13:23:37.766Z,20.60
2018-05-15T13:26:05.403Z,20.60
2018-05-15T13:28:33.785Z,20.00
2018-05-15T13:31:02.179Z,19.60
2018-05-15T13:33:29.793Z,19.60
2018-05-15T13:35:57.416Z,19.70
2018-05-15T13:38:25.043Z,19.80
2018-05-15T13:40:53.436Z,19.20
2018-05-15T13:43:21.064Z,19.20
2018-05-15T13:45:49.809Z,19.20
2018-05-15T13:48:17.454Z,19.10
2018-05-15T13:50:45.073Z,18.80
2018-05-15T13:53:13.485Z,18.60
2018-05-15T13:55:41.108Z,18.60
2018-05-15T13:58:08.734Z,18.50
2018-05-15T14:00:36.356Z,18.30
2018-05-15T14:03:03.984Z,19.00
2018-05-15T14:05:31.607Z,19.30
2018-05-15T14:07:59.232Z,18.70
2018-05-15T14:10:26.852Z,18.40
2018-05-15T14:12:54.476Z,18.70
2018-05-15T14:15:22.097Z,18.90
2018-05-15T14:17:50.492Z,19.00
2018-05-15T14:20:18.116Z,19.00
2018-05-15T14:22:45.744Z,18.40
2018-05-15T14:25:13.370Z,18.60
2018-05-15T14:27:40.983Z,18.70
2018-05-15T14:30:08.620Z,18.80
2018-05-15T14:32:36.248Z,18.60
2018-05-15T14:35:03.876Z,18.60
2018-05-15T14:37:31.508Z,18.00
2018-05-15T14:39:59.468Z,18.30
2018-05-15T14:42:39.080Z,18.10
2018-05-15T14:45:06.734Z,17.60
2018-05-15T14:47:34.352Z,16.90
2018-05-15T14:50:01.996Z,16.40
2018-05-15T14:52:29.611Z,17.30
2018-05-15T14:54:57.996Z,16.70
2018-05-15T14:57:25.645Z,16.70
2018-05-15T14:59:54.048Z,16.80
2018-05-15T15:02:21.656Z,16.80
2018-05-15T15:04:49.307Z,16.70
2018-05-15T15:07:16.928Z,16.70
2018-05-15T15:09:44.545Z,17.00
2018-05-15T15:12:12.196Z,17.00
2018-05-15T15:14:40.139Z,16.60
2018-05-15T15:17:07.755Z,17.00
2018-05-15T15:19:36.166Z,16.90
2018-05-15T15:22:03.802Z,16.90
2018-05-15T15:24:31.432Z,16.50
2018-05-15T15:26:59.055Z,16.60
2018-05-15T15:29:26.672Z,16.60
2018-05-15T15:31:55.068Z,17.70
2018-05-15T15:34:22.690Z,17.70
2018-05-15T15:36:50.317Z,17.60
2018-05-15T15:39:17.952Z,17.50
2018-05-15T15:41:45.584Z,17.80
2018-05-15T15:44:13.976Z,17.60
2018-05-15T15:46:41.595Z,17.60
2018-05-15T15:49:09.215Z,17.80
2018-05-15T15:51:36.849Z,17.70
2018-05-15T15:54:05.235Z,18.10
2018-05-15T15:56:32.864Z,18.10
2018-05-15T15:59:00.504Z,17.80
2018-05-15T16:01:28.453Z,18.20
2018-05-15T16:03:56.324Z,18.30
2018-05-15T16:06:23.983Z,18.70
2018-05-15T16:08:51.612Z,18.70
2018-05-15T16:11:19.281Z,18.40
2018-05-15T16:13:46.908Z,18.80
2018-05-15T16:16:15.301Z,18.30
2018-05-15T16:18:43.685Z,18.40
2018-05-15T16:21:11.323Z,18.40
2018-05-15T16:23:38.941Z,18.40
2018-05-15T16:26:06.574Z,18.40
2018-05-15T16:28:34.254Z,18.50
2018-05-15T16:31:01.852Z,19.00
2018-05-15T16:33:29.482Z,19.30
2018-05-15T16:35:57.096Z,19.50
2018-05-15T16:38:25.489Z,19.40
2018-05-15T16:40:53.116Z,19.40
2018-05-15T16:43:20.778Z,19.60
2018-05-15T16:45:48.388Z,20.00
2018-05-15T16:48:16.016Z,20.20
2018-05-15T16:50:44.416Z,21.00
2018-05-15T16:53:12.029Z,20.90
2018-05-15T16:55:39.656Z,21.30
2018-05-15T16:58:07.272Z,21.60
2018-05-15T17:00:35.655Z,21.60
2018-05-15T17:03:04.390Z,21.90
2018-05-15T17:05:32.005Z,21.90
2018-05-15T17:07:59.716Z,22.30
2018-05-15T17:13:01.379Z,23.10
2018-05-15T17:15:29.015Z,23.50
2018-05-15T17:17:56.632Z,23.60
2018-05-15T17:20:24.267Z,23.70
2018-05-15T17:22:51.890Z,23.80
2018-05-15T17:25:19.517Z,24.50
2018-05-15T17:27:47.922Z,25.10
2018-05-15T17:30:15.541Z,25.00
2018-05-15T17:32:43.155Z,25.40
2018-05-15T17:35:10.784Z,25.80
2018-05-15T17:37:39.180Z,26.50
2018-05-15T17:40:06.872Z,26.40
2018-05-15T17:42:34.492Z,26.70
2018-05-15T17:45:02.886Z,27.50
2018-05-15T17:47:30.561Z,27.40
2018-05-15T17:49:58.925Z,28.30
2018-05-15T17:52:26.584Z,28.20
2018-05-15T17:54:54.216Z,28.50
2018-05-15T17:57:22.612Z,29.70
2018-05-15T17:59:50.309Z,29.70
2018-05-15T18:02:18.656Z,30.10
2018-05-15T18:04:46.280Z,30.10
2018-05-15T18:07:14.668Z,31.10
2018-05-15T18:09:43.063Z,31.50
2018-05-15T18:12:10.677Z,30.80
2018-05-15T18:14:38.331Z,32.30
2018-05-15T18:17:05.944Z,32.70
2018-05-15T18:19:33.565Z,33.50
2018-05-15T18:22:01.199Z,34.20
2018-05-15T18:24:28.808Z,34.90
2018-05-15T18:26:57.204Z,35.80
2018-05-15T18:29:24.821Z,35.80
2018-05-15T18:31:52.452Z,36.20
2018-05-15T18:34:20.077Z,36.50
2018-05-15T18:36:48.460Z,37.30
2018-05-15T18:39:16.097Z,37.20
2018-05-15T18:41:43.714Z,37.70
2018-05-15T18:44:11.337Z,38.10
2018-05-15T18:46:39.732Z,38.60
2018-05-15T18:49:07.348Z,38.50
2018-05-15T18:51:34.977Z,38.90
2018-05-15T18:54:02.596Z,39.20
2018-05-15T18:56:31.010Z,39.60
2018-05-15T18:58:58.692Z,39.50
2018-05-15T19:01:27.076Z,39.90
2018-05-15T19:03:54.696Z,40.40
2018-05-15T19:06:22.304Z,40.20
2018-05-15T19:08:49.933Z,40.50
2018-05-15T19:11:19.513Z,41.00
2018-05-15T19:13:47.198Z,41.20
2018-05-15T19:16:14.819Z,41.40
2018-05-15T19:18:43.200Z,41.70
2018-05-15T19:21:10.843Z,41.10
2018-05-15T19:23:39.229Z,42.30
2018-05-15T19:26:07.608Z,42.40
2018-05-15T19:28:35.468Z,42.40
2018-05-15T19:31:03.872Z,42.50
2018-05-15T19:33:37.154Z,42.40
2018-05-15T19:36:11.338Z,42.50
2018-05-15T19:38:38.963Z,42.70
2018-05-15T19:41:06.590Z,42.80
2018-05-15T19:43:34.213Z,43.00
2018-05-15T19:46:01.840Z,43.20
2018-05-15T19:48:29.476Z,43.10
2018-05-15T19:50:57.088Z,43.30
2018-05-15T19:53:24.719Z,43.40
2018-05-15T19:55:52.338Z,43.40
2018-05-15T19:58:21.061Z,43.80
2018-05-15T20:00:48.691Z,43.80
2018-05-15T20:03:16.302Z,43.80
2018-05-15T20:05:43.923Z,44.00
2018-05-15T20:08:11.551Z,44.30
2018-05-15T20:10:39.928Z,44.70
2018-05-15T20:13:08.317Z,45.50
2018-05-15T20:15:36.691Z,44.70
2018-05-15T20:18:05.096Z,45.80
2018-05-15T20:20:32.704Z,45.20
2018-05-15T20:23:00.337Z,45.40
2018-05-15T20:25:27.959Z,45.60
2018-05-15T20:27:56.336Z,46.10
2018-05-15T20:30:23.961Z,46.10
2018-05-15T20:32:51.573Z,46.50
2018-05-15T20:35:19.188Z,46.70
2018-05-15T20:37:46.800Z,47.00
2018-05-15T20:40:14.417Z,47.00
2018-05-15T20:42:42.808Z,47.20
2018-05-15T20:45:10.429Z,47.10
2018-05-15T20:47:38.056Z,47.20
2018-05-15T20:50:05.677Z,47.40
2018-05-15T20:52:34.101Z,47.50
2018-05-15T20:55:01.722Z,47.50
2018-05-15T20:57:29.358Z,47.60
2018-05-15T20:59:57.034Z,47.60
2018-05-15T21:02:25.422Z,48.10
2018-05-15T21:04:53.804Z,48.20
2018-05-15T21:07:22.195Z,48.70
2018-05-15T21:09:49.817Z,48.70
2018-05-15T21:12:17.432Z,49.30
2018-05-15T21:14:45.052Z,49.50
2018-05-15T21:17:13.433Z,49.10
2018-05-15T21:19:41.820Z,48.80
2018-05-15T21:22:10.204Z,47.90
2018-05-15T21:24:37.838Z,47.90
2018-05-15T21:27:06.220Z,48.30
2018-05-15T21:29:34.617Z,48.30
2018-05-15T21:32:03.005Z,48.30
2018-05-15T21:34:30.628Z,48.30
2018-05-15T21:36:58.249Z,49.40
2018-05-15T21:39:25.867Z,49.00
2018-05-15T21:41:54.236Z,49.10
2018-05-15T21:44:22.627Z,49.30
2018-05-15T21:46:51.008Z,49.10
2018-05-15T21:49:18.634Z,49.10
2018-05-15T21:51:46.272Z,49.50
2018-05-15T21:54:13.882Z,50.80
2018-05-15T21:56:42.279Z,50.50
2018-05-15T21:59:09.904Z,50.50
2018-05-15T22:01:38.292Z,52.10
2018-05-15T22:04:06.680Z,52.20
2018-05-15T22:06:35.068Z,52.70
2018-05-15T22:09:02.728Z,52.70
2018-05-15T22:11:29.862Z,53.50
2018-05-15T22:14:10.172Z,53.90
2018-05-15T22:16:49.598Z,53.80
2018-05-15T22:19:28.932Z,54.30
2018-05-15T22:22:08.396Z,53.30
2018-05-15T22:24:36.008Z,54.70
2018-05-15T22:27:03.623Z,54.40
2018-05-15T22:29:31.252Z,55.20
2018-05-15T22:31:58.863Z,55.00
2018-05-15T22:34:27.250Z,55.30
2018-05-15T22:36:54.860Z,55.30
2018-05-15T22:39:22.484Z,55.40
2018-05-15T22:41:50.092Z,55.30
2018-05-15T22:44:17.725Z,55.40
2018-05-15T22:46:45.340Z,55.60
2018-05-15T22:49:13.719Z,55.40
2018-05-15T22:51:42.129Z,55.90
2018-05-15T22:54:09.744Z,55.90
2018-05-15T22:56:37.372Z,56.60
2018-05-15T22:59:05.001Z,56.60
2018-05-15T23:01:32.619Z,57.10
2018-05-15T23:04:00.248Z,57.70
2018-05-15T23:06:27.935Z,58.10
2018-05-15T23:08:55.520Z,59.00
2018-05-15T23:11:23.904Z,59.70
2018-05-15T23:13:52.280Z,60.00
2018-05-15T23:16:20.668Z,59.90
2018-05-15T23:18:48.292Z,59.80
2018-05-15T23:21:15.924Z,61.20
2018-05-15T23:23:43.582Z,62.60
2018-05-15T23:26:11.196Z,63.20
2018-05-15T23:28:38.808Z,64.10
2018-05-15T23:31:06.428Z,69.30
2018-05-15T23:33:34.056Z,70.30
2018-05-15T23:36:02.440Z,73.90
2018-05-15T23:38:30.852Z,75.20
2018-05-15T23:40:58.460Z,75.10
2018-05-15T23:43:26.068Z,76.60
2018-05-15T23:45:53.771Z,77.50
2018-05-15T23:48:21.384Z,79.20
2018-05-15T23:50:48.999Z,79.80
2018-05-15T23:53:16.615Z,79.70
2018-05-15T23:55:44.220Z,79.80
2018-05-15T23:58:11.835Z,81.50
